sensor_id;sensor_type;location;lat;lon;timestamp;temperature;humidity
24676;DHT22;12799;53.690;10.114;2022-09-09T00:01:41;15.10;99.90
24676;DHT22;12799;53.690;10.114;2022-09-09T00:03:49;15.10;99.90
24676;DHT22;12799;53.690;10.114;2022-09-09T00:05:57;15.10;99.90
24676;DHT22;12799;53.690;10.114;2022-09-09T00:08:02;15.20;99.90
24676;DHT22;12799;53.690;10.114;2022-09-09T00:10:16;15.20;99.90
24676;DHT22;12799;53.690;10.114;2022-09-09T00:12:27;15.20;99.90
24676;DHT22;12799;53.690;10.114;2022-09-09T00:14:39;15.20;99.90
24676;DHT22;12799;53.690;10.114;2022-09-09T00:16:50;15.20;99.90
24676;DHT22;12799;53.690;10.114;2022-09-09T00:19:00;15.20;99.90
24676;DHT22;12799;53.690;10.114;2022-09-09T00:21:06;15.20;99.90
24676;DHT22;12799;53.690;10.114;2022-09-09T00:23:13;15.20;99.90
24676;DHT22;12799;53.690;10.114;2022-09-09T00:25:21;15.20;99.90
24676;DHT22;12799;53.690;10.114;2022-09-09T00:27:29;15.30;99.90
24676;DHT22;12799;53.690;10.114;2022-09-09T00:29:35;15.30;99.90
24676;DHT22;12799;53.690;10.114;2022-09-09T00:31:43;15.20;99.90
24676;DHT22;12799;53.690;10.114;2022-09-09T00:33:47;15.20;99.90
24676;DHT22;12799;53.690;10.114;2022-09-09T00:35:53;15.30;99.90
24676;DHT22;12799;53.690;10.114;2022-09-09T00:38:13;15.20;99.90
24676;DHT22;12799;53.690;10.114;2022-09-09T00:40:23;15.20;99.90
24676;DHT22;12799;53.690;10.114;2022-09-09T00:42:35;15.20;99.90
24676;DHT22;12799;53.690;10.114;2022-09-09T00:44:51;15.20;99.90
24676;DHT22;12799;53.690;10.114;2022-09-09T00:47:09;15.20;99.90
24676;DHT22;12799;53.690;10.114;2022-09-09T00:49:23;15.20;99.90
24676;DHT22;12799;53.690;10.114;2022-09-09T00:51:36;15.30;99.90
24676;DHT22;12799;53.690;10.114;2022-09-09T00:53:59;15.30;99.90
24676;DHT22;12799;53.690;10.114;2022-09-09T00:56:12;15.30;99.90
24676;DHT22;12799;53.690;10.114;2022-09-09T00:58:15;15.30;99.90
24676;DHT22;12799;53.690;10.114;2022-09-09T01:00:21;15.30;99.90
24676;DHT22;12799;53.690;10.114;2022-09-09T01:02:28;15.30;99.90
24676;DHT22;12799;53.690;10.114;2022-09-09T01:04:34;15.30;99.90
24676;DHT22;12799;53.690;10.114;2022-09-09T01:06:37;15.30;99.90
24676;DHT22;12799;53.690;10.114;2022-09-09T01:08:51;15.30;99.90
24676;DHT22;12799;53.690;10.114;2022-09-09T01:10:58;15.30;99.90
24676;DHT22;12799;53.690;10.114;2022-09-09T01:13:04;15.30;99.90
24676;DHT22;12799;53.690;10.114;2022-09-09T01:15:14;15.30;99.90
24676;DHT22;12799;53.690;10.114;2022-09-09T01:17:21;15.30;99.90
24676;DHT22;12799;53.690;10.114;2022-09-09T01:19:37;15.30;99.90
24676;DHT22;12799;53.690;10.114;2022-09-09T01:21:48;15.30;99.90
24676;DHT22;12799;53.690;10.114;2022-09-09T01:24:08;15.30;99.90
24676;DHT22;12799;53.690;10.114;2022-09-09T01:26:19;15.30;99.90
24676;DHT22;12799;53.690;10.114;2022-09-09T01:28:26;15.30;99.90
24676;DHT22;12799;53.690;10.114;2022-09-09T01:30:28;15.40;99.90
24676;DHT22;12799;53.690;10.114;2022-09-09T01:32:42;15.40;99.90
24676;DHT22;12799;53.690;10.114;2022-09-09T01:34:44;15.40;99.90
24676;DHT22;12799;53.690;10.114;2022-09-09T01:36:52;15.40;99.90
24676;DHT22;12799;53.690;10.114;2022-09-09T01:38:55;15.30;99.90
24676;DHT22;12799;53.690;10.114;2022-09-09T01:40:57;15.30;99.90
24676;DHT22;12799;53.690;10.114;2022-09-09T01:43:01;15.30;99.90
24676;DHT22;12799;53.690;10.114;2022-09-09T01:45:04;15.40;99.90
24676;DHT22;12799;53.690;10.114;2022-09-09T01:47:07;15.40;99.90
24676;DHT22;12799;53.690;10.114;2022-09-09T01:49:09;15.30;99.90
24676;DHT22;12799;53.690;10.114;2022-09-09T01:51:11;15.40;99.90
24676;DHT22;12799;53.690;10.114;2022-09-09T01:53:14;15.30;99.90
24676;DHT22;12799;53.690;10.114;2022-09-09T01:55:21;15.30;99.90
24676;DHT22;12799;53.690;10.114;2022-09-09T01:57:28;15.30;99.90
24676;DHT22;12799;53.690;10.114;2022-09-09T01:59:45;15.30;99.90
24676;DHT22;12799;53.690;10.114;2022-09-09T02:02:03;15.40;99.90
24676;DHT22;12799;53.690;10.114;2022-09-09T02:04:18;15.30;99.90
24676;DHT22;12799;53.690;10.114;2022-09-09T02:06:28;15.30;99.90
24676;DHT22;12799;53.690;10.114;2022-09-09T02:08:38;15.30;99.90
24676;DHT22;12799;53.690;10.114;2022-09-09T02:10:46;15.30;99.90
24676;DHT22;12799;53.690;10.114;2022-09-09T02:12:53;15.30;99.90
24676;DHT22;12799;53.690;10.114;2022-09-09T02:15:02;15.30;99.90
24676;DHT22;12799;53.690;10.114;2022-09-09T02:17:09;15.30;99.90
24676;DHT22;12799;53.690;10.114;2022-09-09T02:19:14;15.30;99.90
24676;DHT22;12799;53.690;10.114;2022-09-09T02:21:27;15.30;99.90
24676;DHT22;12799;53.690;10.114;2022-09-09T02:23:32;15.20;99.90
24676;DHT22;12799;53.690;10.114;2022-09-09T02:25:36;15.20;99.90
24676;DHT22;12799;53.690;10.114;2022-09-09T02:27:39;15.10;99.90
24676;DHT22;12799;53.690;10.114;2022-09-09T02:29:42;15.20;99.90
24676;DHT22;12799;53.690;10.114;2022-09-09T02:31:50;15.10;99.90
24676;DHT22;12799;53.690;10.114;2022-09-09T02:33:56;15.20;99.90
24676;DHT22;12799;53.690;10.114;2022-09-09T02:35:59;15.20;99.90
24676;DHT22;12799;53.690;10.114;2022-09-09T02:38:07;15.20;99.90
24676;DHT22;12799;53.690;10.114;2022-09-09T02:40:12;15.20;99.90
24676;DHT22;12799;53.690;10.114;2022-09-09T02:42:14;15.20;99.90
24676;DHT22;12799;53.690;10.114;2022-09-09T02:44:17;15.30;99.90
24676;DHT22;12799;53.690;10.114;2022-09-09T02:46:32;15.30;99.90
24676;DHT22;12799;53.690;10.114;2022-09-09T02:48:43;15.30;99.90
24676;DHT22;12799;53.690;10.114;2022-09-09T02:50:54;15.30;99.90
24676;DHT22;12799;53.690;10.114;2022-09-09T02:53:06;15.30;99.90
24676;DHT22;12799;53.690;10.114;2022-09-09T02:55:17;15.30;99.90
24676;DHT22;12799;53.690;10.114;2022-09-09T02:57:24;15.30;99.90
24676;DHT22;12799;53.690;10.114;2022-09-09T02:59:29;15.30;99.90
24676;DHT22;12799;53.690;10.114;2022-09-09T03:01:32;15.30;99.90
24676;DHT22;12799;53.690;10.114;2022-09-09T03:03:34;15.30;99.90
24676;DHT22;12799;53.690;10.114;2022-09-09T03:05:38;15.30;99.90
24676;DHT22;12799;53.690;10.114;2022-09-09T03:07:39;15.30;99.90
24676;DHT22;12799;53.690;10.114;2022-09-09T03:09:42;15.20;99.90
24676;DHT22;12799;53.690;10.114;2022-09-09T03:11:44;15.20;99.90
24676;DHT22;12799;53.690;10.114;2022-09-09T03:13:46;15.20;99.90
24676;DHT22;12799;53.690;10.114;2022-09-09T03:15:49;15.20;99.90
24676;DHT22;12799;53.690;10.114;2022-09-09T03:17:52;15.20;99.90
24676;DHT22;12799;53.690;10.114;2022-09-09T03:19:54;15.20;99.90
24676;DHT22;12799;53.690;10.114;2022-09-09T03:21:58;15.20;99.90
24676;DHT22;12799;53.690;10.114;2022-09-09T03:24:01;15.20;99.90
24676;DHT22;12799;53.690;10.114;2022-09-09T03:26:03;15.20;99.90
24676;DHT22;12799;53.690;10.114;2022-09-09T03:28:05;15.20;99.90
24676;DHT22;12799;53.690;10.114;2022-09-09T03:30:08;15.10;99.90
24676;DHT22;12799;53.690;10.114;2022-09-09T03:32:10;15.10;99.90
24676;DHT22;12799;53.690;10.114;2022-09-09T03:34:12;15.10;99.90
24676;DHT22;12799;53.690;10.114;2022-09-09T03:36:14;15.10;99.90
24676;DHT22;12799;53.690;10.114;2022-09-09T03:38:18;15.10;99.90
24676;DHT22;12799;53.690;10.114;2022-09-09T03:40:19;15.10;99.90
24676;DHT22;12799;53.690;10.114;2022-09-09T03:42:21;15.10;99.90
24676;DHT22;12799;53.690;10.114;2022-09-09T03:44:23;15.10;99.90
24676;DHT22;12799;53.690;10.114;2022-09-09T03:46:26;15.10;99.90
24676;DHT22;12799;53.690;10.114;2022-09-09T03:48:27;15.10;99.90
24676;DHT22;12799;53.690;10.114;2022-09-09T03:50:29;15.10;99.90
24676;DHT22;12799;53.690;10.114;2022-09-09T03:52:34;15.10;99.90
24676;DHT22;12799;53.690;10.114;2022-09-09T03:54:37;15.10;99.90
24676;DHT22;12799;53.690;10.114;2022-09-09T03:56:39;15.10;99.90
24676;DHT22;12799;53.690;10.114;2022-09-09T03:58:42;15.00;99.90
24676;DHT22;12799;53.690;10.114;2022-09-09T04:00:53;15.00;99.90
24676;DHT22;12799;53.690;10.114;2022-09-09T04:02:55;15.10;99.90
24676;DHT22;12799;53.690;10.114;2022-09-09T04:04:57;15.10;99.90
24676;DHT22;12799;53.690;10.114;2022-09-09T04:07:00;15.10;99.90
24676;DHT22;12799;53.690;10.114;2022-09-09T04:09:02;15.10;99.90
24676;DHT22;12799;53.690;10.114;2022-09-09T04:11:06;15.10;99.90
24676;DHT22;12799;53.690;10.114;2022-09-09T04:13:08;15.20;99.90
24676;DHT22;12799;53.690;10.114;2022-09-09T04:15:10;15.10;99.90
24676;DHT22;12799;53.690;10.114;2022-09-09T04:17:12;15.10;99.90
24676;DHT22;12799;53.690;10.114;2022-09-09T04:19:14;15.10;99.90
24676;DHT22;12799;53.690;10.114;2022-09-09T04:21:16;15.10;99.90
24676;DHT22;12799;53.690;10.114;2022-09-09T04:23:19;15.00;99.90
24676;DHT22;12799;53.690;10.114;2022-09-09T04:25:21;15.00;99.90
24676;DHT22;12799;53.690;10.114;2022-09-09T04:27:24;15.00;99.90
24676;DHT22;12799;53.690;10.114;2022-09-09T04:29:26;15.00;99.90
24676;DHT22;12799;53.690;10.114;2022-09-09T04:31:28;14.90;99.90
24676;DHT22;12799;53.690;10.114;2022-09-09T04:33:30;15.00;99.90
24676;DHT22;12799;53.690;10.114;2022-09-09T04:35:33;14.90;99.90
24676;DHT22;12799;53.690;10.114;2022-09-09T04:37:35;14.90;99.90
24676;DHT22;12799;53.690;10.114;2022-09-09T04:39:37;14.90;99.90
24676;DHT22;12799;53.690;10.114;2022-09-09T04:41:39;14.90;99.90
24676;DHT22;12799;53.690;10.114;2022-09-09T04:43:42;14.90;99.90
24676;DHT22;12799;53.690;10.114;2022-09-09T04:45:47;14.90;99.90
24676;DHT22;12799;53.690;10.114;2022-09-09T04:47:50;14.90;99.90
24676;DHT22;12799;53.690;10.114;2022-09-09T04:49:51;14.90;99.90
24676;DHT22;12799;53.690;10.114;2022-09-09T04:51:55;14.90;99.90
24676;DHT22;12799;53.690;10.114;2022-09-09T04:53:57;14.90;99.90
24676;DHT22;12799;53.690;10.114;2022-09-09T04:56:02;14.90;99.90
24676;DHT22;12799;53.690;10.114;2022-09-09T04:58:05;14.90;99.90
24676;DHT22;12799;53.690;10.114;2022-09-09T05:00:10;14.90;99.90
24676;DHT22;12799;53.690;10.114;2022-09-09T05:02:13;14.90;99.90
24676;DHT22;12799;53.690;10.114;2022-09-09T05:04:15;14.90;99.90
24676;DHT22;12799;53.690;10.114;2022-09-09T05:06:18;14.90;99.90
24676;DHT22;12799;53.690;10.114;2022-09-09T05:08:21;14.90;99.90
24676;DHT22;12799;53.690;10.114;2022-09-09T05:10:23;14.90;99.90
24676;DHT22;12799;53.690;10.114;2022-09-09T05:12:25;14.90;99.90
24676;DHT22;12799;53.690;10.114;2022-09-09T05:14:27;14.90;99.90
24676;DHT22;12799;53.690;10.114;2022-09-09T05:16:31;14.90;99.90
24676;DHT22;12799;53.690;10.114;2022-09-09T05:18:33;14.90;99.90
24676;DHT22;12799;53.690;10.114;2022-09-09T05:20:35;14.90;99.90
24676;DHT22;12799;53.690;10.114;2022-09-09T05:22:37;14.90;99.90
24676;DHT22;12799;53.690;10.114;2022-09-09T05:24:39;14.90;99.90
24676;DHT22;12799;53.690;10.114;2022-09-09T05:26:41;14.90;99.90
24676;DHT22;12799;53.690;10.114;2022-09-09T05:28:44;14.80;99.90
24676;DHT22;12799;53.690;10.114;2022-09-09T05:30:46;14.90;99.90
24676;DHT22;12799;53.690;10.114;2022-09-09T05:32:57;14.90;99.90
24676;DHT22;12799;53.690;10.114;2022-09-09T05:34:59;14.90;99.90
24676;DHT22;12799;53.690;10.114;2022-09-09T05:37:02;14.90;99.90
24676;DHT22;12799;53.690;10.114;2022-09-09T05:39:04;14.90;99.90
24676;DHT22;12799;53.690;10.114;2022-09-09T05:41:07;14.90;99.90
24676;DHT22;12799;53.690;10.114;2022-09-09T05:43:10;14.90;99.90
24676;DHT22;12799;53.690;10.114;2022-09-09T05:45:12;14.90;99.90
24676;DHT22;12799;53.690;10.114;2022-09-09T05:47:14;14.90;99.90
24676;DHT22;12799;53.690;10.114;2022-09-09T05:49:18;14.90;99.90
24676;DHT22;12799;53.690;10.114;2022-09-09T05:51:21;14.90;99.90
24676;DHT22;12799;53.690;10.114;2022-09-09T05:53:25;14.90;99.90
24676;DHT22;12799;53.690;10.114;2022-09-09T05:55:27;14.90;99.90
24676;DHT22;12799;53.690;10.114;2022-09-09T05:57:29;14.90;99.90
24676;DHT22;12799;53.690;10.114;2022-09-09T05:59:30;14.90;99.90
24676;DHT22;12799;53.690;10.114;2022-09-09T06:01:35;14.90;99.90
24676;DHT22;12799;53.690;10.114;2022-09-09T06:03:42;14.90;99.90
24676;DHT22;12799;53.690;10.114;2022-09-09T06:05:45;14.90;99.90
24676;DHT22;12799;53.690;10.114;2022-09-09T06:07:47;14.90;99.90
24676;DHT22;12799;53.690;10.114;2022-09-09T06:09:49;14.90;99.90
24676;DHT22;12799;53.690;10.114;2022-09-09T06:11:52;14.90;99.90
24676;DHT22;12799;53.690;10.114;2022-09-09T06:13:54;14.90;99.90
24676;DHT22;12799;53.690;10.114;2022-09-09T06:15:56;15.00;99.90
24676;DHT22;12799;53.690;10.114;2022-09-09T06:17:58;15.00;99.90
24676;DHT22;12799;53.690;10.114;2022-09-09T06:20:01;15.00;99.90
24676;DHT22;12799;53.690;10.114;2022-09-09T06:22:04;15.00;99.90
24676;DHT22;12799;53.690;10.114;2022-09-09T06:24:06;15.00;99.90
24676;DHT22;12799;53.690;10.114;2022-09-09T06:26:10;15.10;99.90
24676;DHT22;12799;53.690;10.114;2022-09-09T06:28:13;15.10;99.90
24676;DHT22;12799;53.690;10.114;2022-09-09T06:30:15;15.10;99.90
24676;DHT22;12799;53.690;10.114;2022-09-09T06:32:17;15.10;99.90
24676;DHT22;12799;53.690;10.114;2022-09-09T06:34:19;15.10;99.90
24676;DHT22;12799;53.690;10.114;2022-09-09T06:36:23;15.10;99.90
24676;DHT22;12799;53.690;10.114;2022-09-09T06:38:26;15.20;99.90
24676;DHT22;12799;53.690;10.114;2022-09-09T06:40:29;15.20;99.90
24676;DHT22;12799;53.690;10.114;2022-09-09T06:42:31;15.20;99.90
24676;DHT22;12799;53.690;10.114;2022-09-09T06:44:33;15.20;99.90
24676;DHT22;12799;53.690;10.114;2022-09-09T06:46:35;15.30;99.90
24676;DHT22;12799;53.690;10.114;2022-09-09T06:48:39;15.20;99.90
24676;DHT22;12799;53.690;10.114;2022-09-09T06:50:42;15.30;99.90
24676;DHT22;12799;53.690;10.114;2022-09-09T06:52:46;15.30;99.90
24676;DHT22;12799;53.690;10.114;2022-09-09T06:54:49;15.40;99.90
24676;DHT22;12799;53.690;10.114;2022-09-09T06:56:51;15.30;99.90
24676;DHT22;12799;53.690;10.114;2022-09-09T06:58:54;15.40;99.90
24676;DHT22;12799;53.690;10.114;2022-09-09T07:01:02;15.50;99.90
24676;DHT22;12799;53.690;10.114;2022-09-09T07:03:05;15.50;99.90
24676;DHT22;12799;53.690;10.114;2022-09-09T07:05:07;15.50;99.90
24676;DHT22;12799;53.690;10.114;2022-09-09T07:07:10;15.50;99.90
24676;DHT22;12799;53.690;10.114;2022-09-09T07:09:15;15.50;99.90
24676;DHT22;12799;53.690;10.114;2022-09-09T07:11:19;15.50;99.90
24676;DHT22;12799;53.690;10.114;2022-09-09T07:13:23;15.50;99.90
24676;DHT22;12799;53.690;10.114;2022-09-09T07:15:25;15.50;99.90
24676;DHT22;12799;53.690;10.114;2022-09-09T07:17:27;15.50;99.90
24676;DHT22;12799;53.690;10.114;2022-09-09T07:19:29;15.50;99.90
24676;DHT22;12799;53.690;10.114;2022-09-09T07:21:33;15.60;99.90
24676;DHT22;12799;53.690;10.114;2022-09-09T07:23:35;15.50;99.90
24676;DHT22;12799;53.690;10.114;2022-09-09T07:25:37;15.60;99.90
24676;DHT22;12799;53.690;10.114;2022-09-09T07:27:40;15.60;99.90
24676;DHT22;12799;53.690;10.114;2022-09-09T07:29:42;15.60;99.90
24676;DHT22;12799;53.690;10.114;2022-09-09T07:31:46;15.60;99.90
24676;DHT22;12799;53.690;10.114;2022-09-09T07:33:48;15.60;99.90
24676;DHT22;12799;53.690;10.114;2022-09-09T07:35:51;15.60;99.90
24676;DHT22;12799;53.690;10.114;2022-09-09T07:37:53;15.70;99.90
24676;DHT22;12799;53.690;10.114;2022-09-09T07:39:54;15.80;99.90
24676;DHT22;12799;53.690;10.114;2022-09-09T07:41:56;15.80;99.90
24676;DHT22;12799;53.690;10.114;2022-09-09T07:44:04;15.90;99.90
24676;DHT22;12799;53.690;10.114;2022-09-09T07:46:07;15.90;99.90
24676;DHT22;12799;53.690;10.114;2022-09-09T07:48:10;16.00;99.90
24676;DHT22;12799;53.690;10.114;2022-09-09T07:50:12;16.10;99.90
24676;DHT22;12799;53.690;10.114;2022-09-09T07:52:14;16.20;99.90
24676;DHT22;12799;53.690;10.114;2022-09-09T07:54:18;16.20;99.90
24676;DHT22;12799;53.690;10.114;2022-09-09T07:56:24;16.30;99.90
24676;DHT22;12799;53.690;10.114;2022-09-09T07:58:27;16.30;99.90
24676;DHT22;12799;53.690;10.114;2022-09-09T08:00:30;16.40;99.90
24676;DHT22;12799;53.690;10.114;2022-09-09T08:02:33;16.40;99.90
24676;DHT22;12799;53.690;10.114;2022-09-09T08:04:35;16.50;99.90
24676;DHT22;12799;53.690;10.114;2022-09-09T08:06:39;16.50;99.90
24676;DHT22;12799;53.690;10.114;2022-09-09T08:08:41;16.50;99.90
24676;DHT22;12799;53.690;10.114;2022-09-09T08:10:43;16.60;99.90
24676;DHT22;12799;53.690;10.114;2022-09-09T08:12:45;16.60;99.90
24676;DHT22;12799;53.690;10.114;2022-09-09T08:14:47;16.70;99.90
24676;DHT22;12799;53.690;10.114;2022-09-09T08:16:51;16.80;99.90
24676;DHT22;12799;53.690;10.114;2022-09-09T08:18:54;16.80;99.90
24676;DHT22;12799;53.690;10.114;2022-09-09T08:20:56;16.80;99.90
24676;DHT22;12799;53.690;10.114;2022-09-09T08:22:58;16.90;99.90
24676;DHT22;12799;53.690;10.114;2022-09-09T08:25:00;17.00;99.90
24676;DHT22;12799;53.690;10.114;2022-09-09T08:27:02;17.00;99.90
24676;DHT22;12799;53.690;10.114;2022-09-09T08:29:06;17.10;99.90
24676;DHT22;12799;53.690;10.114;2022-09-09T08:31:11;17.10;99.90
24676;DHT22;12799;53.690;10.114;2022-09-09T08:33:15;17.10;99.90
24676;DHT22;12799;53.690;10.114;2022-09-09T08:35:18;17.20;99.90
24676;DHT22;12799;53.690;10.114;2022-09-09T08:37:21;17.20;99.90
24676;DHT22;12799;53.690;10.114;2022-09-09T08:39:23;17.30;99.90
24676;DHT22;12799;53.690;10.114;2022-09-09T08:44:07;17.50;99.90
24676;DHT22;12799;53.690;10.114;2022-09-09T08:46:16;17.60;99.90
24676;DHT22;12799;53.690;10.114;2022-09-09T08:48:41;17.60;99.90
24676;DHT22;12799;53.690;10.114;2022-09-09T08:50:45;17.70;99.90
24676;DHT22;12799;53.690;10.114;2022-09-09T08:52:57;17.80;99.90
24676;DHT22;12799;53.690;10.114;2022-09-09T08:55:12;17.90;99.90
24676;DHT22;12799;53.690;10.114;2022-09-09T08:57:25;18.10;99.90
24676;DHT22;12799;53.690;10.114;2022-09-09T08:59:27;18.10;99.90
24676;DHT22;12799;53.690;10.114;2022-09-09T09:01:43;18.20;99.90
24676;DHT22;12799;53.690;10.114;2022-09-09T09:03:55;18.20;99.90
24676;DHT22;12799;53.690;10.114;2022-09-09T09:06:06;18.30;99.90
24676;DHT22;12799;53.690;10.114;2022-09-09T09:08:17;18.50;99.90
24676;DHT22;12799;53.690;10.114;2022-09-09T09:10:33;18.60;99.90
24676;DHT22;12799;53.690;10.114;2022-09-09T09:12:41;18.60;99.90
24676;DHT22;12799;53.690;10.114;2022-09-09T09:14:44;18.70;99.90
24676;DHT22;12799;53.690;10.114;2022-09-09T09:16:52;18.70;99.90
24676;DHT22;12799;53.690;10.114;2022-09-09T09:18:56;18.70;99.90
24676;DHT22;12799;53.690;10.114;2022-09-09T09:21:02;18.80;99.90
24676;DHT22;12799;53.690;10.114;2022-09-09T09:23:14;18.90;99.90
24676;DHT22;12799;53.690;10.114;2022-09-09T09:25:20;19.00;99.90
24676;DHT22;12799;53.690;10.114;2022-09-09T09:27:30;19.10;99.90
24676;DHT22;12799;53.690;10.114;2022-09-09T09:29:33;19.10;99.90
24676;DHT22;12799;53.690;10.114;2022-09-09T09:31:35;19.10;99.90
24676;DHT22;12799;53.690;10.114;2022-09-09T09:33:46;19.20;99.90
24676;DHT22;12799;53.690;10.114;2022-09-09T09:35:50;19.20;99.90
24676;DHT22;12799;53.690;10.114;2022-09-09T09:37:52;19.20;99.90
24676;DHT22;12799;53.690;10.114;2022-09-09T09:39:54;19.30;99.90
24676;DHT22;12799;53.690;10.114;2022-09-09T09:41:57;19.40;99.90
24676;DHT22;12799;53.690;10.114;2022-09-09T09:44:03;19.40;99.90
24676;DHT22;12799;53.690;10.114;2022-09-09T09:46:16;19.40;99.90
24676;DHT22;12799;53.690;10.114;2022-09-09T09:48:19;19.40;99.90
24676;DHT22;12799;53.690;10.114;2022-09-09T09:50:21;19.60;99.90
24676;DHT22;12799;53.690;10.114;2022-09-09T09:52:27;19.60;99.90
24676;DHT22;12799;53.690;10.114;2022-09-09T09:54:32;19.50;99.90
24676;DHT22;12799;53.690;10.114;2022-09-09T09:56:36;19.60;99.90
24676;DHT22;12799;53.690;10.114;2022-09-09T09:58:49;19.60;99.90
24676;DHT22;12799;53.690;10.114;2022-09-09T10:00:53;19.70;99.90
24676;DHT22;12799;53.690;10.114;2022-09-09T10:02:55;19.70;99.90
24676;DHT22;12799;53.690;10.114;2022-09-09T10:05:02;19.70;99.90
24676;DHT22;12799;53.690;10.114;2022-09-09T10:07:10;19.70;99.90
24676;DHT22;12799;53.690;10.114;2022-09-09T10:09:23;19.60;99.90
24676;DHT22;12799;53.690;10.114;2022-09-09T10:11:35;19.60;99.90
24676;DHT22;12799;53.690;10.114;2022-09-09T10:13:49;19.70;99.90
24676;DHT22;12799;53.690;10.114;2022-09-09T10:16:05;19.70;99.90
24676;DHT22;12799;53.690;10.114;2022-09-09T10:18:20;19.80;99.90
24676;DHT22;12799;53.690;10.114;2022-09-09T10:20:34;19.80;99.90
24676;DHT22;12799;53.690;10.114;2022-09-09T10:22:43;20.00;99.90
24676;DHT22;12799;53.690;10.114;2022-09-09T10:25:10;20.20;99.90
24676;DHT22;12799;53.690;10.114;2022-09-09T10:27:21;20.40;99.90
24676;DHT22;12799;53.690;10.114;2022-09-09T10:29:32;20.60;99.90
24676;DHT22;12799;53.690;10.114;2022-09-09T10:31:45;20.80;99.90
24676;DHT22;12799;53.690;10.114;2022-09-09T10:33:54;21.10;99.90
24676;DHT22;12799;53.690;10.114;2022-09-09T10:36:04;21.30;99.90
24676;DHT22;12799;53.690;10.114;2022-09-09T10:38:13;21.50;99.90
24676;DHT22;12799;53.690;10.114;2022-09-09T10:40:33;21.80;99.90
24676;DHT22;12799;53.690;10.114;2022-09-09T10:42:37;22.00;99.90
24676;DHT22;12799;53.690;10.114;2022-09-09T10:44:49;22.00;99.90
24676;DHT22;12799;53.690;10.114;2022-09-09T10:49:47;22.20;99.90
24676;DHT22;12799;53.690;10.114;2022-09-09T10:52:00;22.30;99.90
24676;DHT22;12799;53.690;10.114;2022-09-09T10:54:23;22.40;99.90
24676;DHT22;12799;53.690;10.114;2022-09-09T10:56:28;22.50;99.90
24676;DHT22;12799;53.690;10.114;2022-09-09T10:58:35;22.60;99.90
24676;DHT22;12799;53.690;10.114;2022-09-09T11:00:40;22.80;99.90
24676;DHT22;12799;53.690;10.114;2022-09-09T11:02:44;22.80;99.90
24676;DHT22;12799;53.690;10.114;2022-09-09T11:04:50;22.90;99.90
24676;DHT22;12799;53.690;10.114;2022-09-09T11:06:55;23.10;99.90
24676;DHT22;12799;53.690;10.114;2022-09-09T11:08:58;23.20;99.90
24676;DHT22;12799;53.690;10.114;2022-09-09T11:11:03;23.50;99.90
24676;DHT22;12799;53.690;10.114;2022-09-09T11:13:11;23.60;99.90
24676;DHT22;12799;53.690;10.114;2022-09-09T11:15:22;23.80;99.90
24676;DHT22;12799;53.690;10.114;2022-09-09T11:17:29;23.60;99.90
24676;DHT22;12799;53.690;10.114;2022-09-09T11:19:36;23.70;99.90
24676;DHT22;12799;53.690;10.114;2022-09-09T11:21:43;23.90;99.90
24676;DHT22;12799;53.690;10.114;2022-09-09T11:23:50;24.10;99.90
24676;DHT22;12799;53.690;10.114;2022-09-09T11:25:56;24.20;99.90
24676;DHT22;12799;53.690;10.114;2022-09-09T11:28:24;24.30;99.90
24676;DHT22;12799;53.690;10.114;2022-09-09T11:30:32;24.00;99.90
24676;DHT22;12799;53.690;10.114;2022-09-09T11:32:59;24.20;99.90
24676;DHT22;12799;53.690;10.114;2022-09-09T11:35:18;24.10;99.90
24676;DHT22;12799;53.690;10.114;2022-09-09T11:37:40;24.00;99.90
24676;DHT22;12799;53.690;10.114;2022-09-09T11:40:17;23.80;99.90
24676;DHT22;12799;53.690;10.114;2022-09-09T11:42:22;23.60;99.90
24676;DHT22;12799;53.690;10.114;2022-09-09T11:44:29;23.60;99.90
24676;DHT22;12799;53.690;10.114;2022-09-09T11:46:35;23.70;99.90
24676;DHT22;12799;53.690;10.114;2022-09-09T11:48:40;23.50;99.90
24676;DHT22;12799;53.690;10.114;2022-09-09T11:50:45;23.50;99.90
24676;DHT22;12799;53.690;10.114;2022-09-09T11:52:48;23.70;99.90
24676;DHT22;12799;53.690;10.114;2022-09-09T11:54:50;23.50;99.90
24676;DHT22;12799;53.690;10.114;2022-09-09T11:56:52;23.60;99.90
24676;DHT22;12799;53.690;10.114;2022-09-09T11:58:56;23.60;99.90
24676;DHT22;12799;53.690;10.114;2022-09-09T12:01:00;23.60;99.90
24676;DHT22;12799;53.690;10.114;2022-09-09T12:03:04;23.70;99.90
24676;DHT22;12799;53.690;10.114;2022-09-09T12:05:08;23.70;99.90
24676;DHT22;12799;53.690;10.114;2022-09-09T12:07:30;23.40;99.90
24676;DHT22;12799;53.690;10.114;2022-09-09T12:09:44;23.40;99.90
24676;DHT22;12799;53.690;10.114;2022-09-09T12:11:47;23.40;99.90
24676;DHT22;12799;53.690;10.114;2022-09-09T12:13:52;23.40;99.90
24676;DHT22;12799;53.690;10.114;2022-09-09T12:15:55;23.30;99.90
24676;DHT22;12799;53.690;10.114;2022-09-09T12:17:59;23.30;99.90
24676;DHT22;12799;53.690;10.114;2022-09-09T12:20:13;23.10;99.90
24676;DHT22;12799;53.690;10.114;2022-09-09T12:22:24;23.20;99.90
24676;DHT22;12799;53.690;10.114;2022-09-09T12:24:33;23.30;99.90
24676;DHT22;12799;53.690;10.114;2022-09-09T12:26:40;23.20;99.90
24676;DHT22;12799;53.690;10.114;2022-09-09T12:28:51;23.20;99.90
24676;DHT22;12799;53.690;10.114;2022-09-09T12:30:58;23.30;99.90
24676;DHT22;12799;53.690;10.114;2022-09-09T12:33:10;23.20;99.90
24676;DHT22;12799;53.690;10.114;2022-09-09T12:35:14;23.10;99.90
24676;DHT22;12799;53.690;10.114;2022-09-09T12:37:27;22.90;99.90
24676;DHT22;12799;53.690;10.114;2022-09-09T12:39:35;22.70;99.90
24676;DHT22;12799;53.690;10.114;2022-09-09T12:41:39;22.70;99.90
24676;DHT22;12799;53.690;10.114;2022-09-09T12:43:40;22.60;99.90
24676;DHT22;12799;53.690;10.114;2022-09-09T12:45:43;22.50;99.90
24676;DHT22;12799;53.690;10.114;2022-09-09T12:47:49;22.40;99.90
24676;DHT22;12799;53.690;10.114;2022-09-09T12:49:53;22.30;99.90
24676;DHT22;12799;53.690;10.114;2022-09-09T12:51:57;22.20;99.90
24676;DHT22;12799;53.690;10.114;2022-09-09T12:53:59;22.20;99.90
24676;DHT22;12799;53.690;10.114;2022-09-09T12:56:05;22.20;99.90
24676;DHT22;12799;53.690;10.114;2022-09-09T12:58:13;22.10;99.90
24676;DHT22;12799;53.690;10.114;2022-09-09T13:00:20;22.20;99.90
24676;DHT22;12799;53.690;10.114;2022-09-09T13:02:25;22.10;99.90
24676;DHT22;12799;53.690;10.114;2022-09-09T13:04:28;21.90;99.90
24676;DHT22;12799;53.690;10.114;2022-09-09T13:06:32;21.80;99.90
24676;DHT22;12799;53.690;10.114;2022-09-09T13:08:35;22.00;99.90